createdAt,value
2023-09-11T00:00:09.791Z,100.00
2023-09-11T00:03:12.571Z,100.00
2023-09-11T00:06:15.333Z,100.00
2023-09-11T00:09:17.749Z,100.00
2023-09-11T00:12:20.222Z,100.00
2023-09-11T00:15:22.671Z,100.00
2023-09-11T00:18:25.679Z,100.00
2023-09-11T00:21:28.306Z,100.00
2023-09-11T00:24:30.712Z,100.00
2023-09-11T00:27:33.105Z,100.00
2023-09-11T00:30:38.754Z,100.00
2023-09-11T00:33:41.177Z,100.00
2023-09-11T00:36:43.705Z,100.00
2023-09-11T00:39:46.116Z,100.00
2023-09-11T00:42:48.681Z,100.00
2023-09-11T00:45:52.227Z,100.00
2023-09-11T00:48:57.116Z,100.00
2023-09-11T00:52:00.610Z,100.00
2023-09-11T00:55:03.827Z,100.00
2023-09-11T00:58:06.884Z,100.00
2023-09-11T01:01:12.017Z,100.00
2023-09-11T01:04:14.852Z,100.00
2023-09-11T01:07:18.490Z,100.00
2023-09-11T01:10:21.632Z,100.00
2023-09-11T01:13:25.279Z,100.00
2023-09-11T01:16:52.714Z,100.00
2023-09-11T01:20:15.359Z,100.00
2023-09-11T01:23:33.009Z,100.00
2023-09-11T01:26:52.456Z,100.00
2023-09-11T01:29:59.001Z,100.00
2023-09-11T01:33:01.813Z,100.00
2023-09-11T01:36:04.332Z,100.00
2023-09-11T01:39:07.062Z,100.00
2023-09-11T01:42:12.721Z,100.00
2023-09-11T01:45:16.525Z,100.00
2023-09-11T01:48:21.793Z,100.00
2023-09-11T01:51:25.984Z,100.00
2023-09-11T01:54:28.681Z,100.00
2023-09-11T01:57:31.168Z,100.00
2023-09-11T02:00:33.553Z,100.00
2023-09-11T02:03:36.148Z,100.00
2023-09-11T02:06:38.719Z,100.00
2023-09-11T02:09:41.298Z,100.00
2023-09-11T02:12:43.693Z,100.00
2023-09-11T02:15:46.211Z,100.00
2023-09-11T02:18:48.698Z,100.00
2023-09-11T02:21:51.055Z,100.00
2023-09-11T02:24:53.417Z,100.00
2023-09-11T02:27:55.883Z,100.00
2023-09-11T02:30:58.933Z,100.00
2023-09-11T02:34:01.438Z,100.00
2023-09-11T02:37:03.949Z,100.00
2023-09-11T02:40:07.717Z,100.00
2023-09-11T02:43:10.133Z,100.00
2023-09-11T02:46:12.609Z,100.00
2023-09-11T02:49:15.114Z,100.00
2023-09-11T02:52:17.497Z,100.00
2023-09-11T02:55:20.011Z,100.00
2023-09-11T02:58:22.419Z,100.00
2023-09-11T03:01:24.934Z,100.00
2023-09-11T03:04:27.513Z,100.00
2023-09-11T03:07:30.007Z,100.00
2023-09-11T03:10:32.896Z,100.00
2023-09-11T03:13:35.803Z,100.00
2023-09-11T03:16:44.913Z,100.00
2023-09-11T03:19:47.976Z,100.00
2023-09-11T03:22:50.461Z,100.00
2023-09-11T03:25:52.873Z,100.00
2023-09-11T03:28:55.594Z,100.00
2023-09-11T03:32:02.089Z,100.00
2023-09-11T03:35:05.312Z,100.00
2023-09-11T03:38:07.770Z,100.00
2023-09-11T03:41:10.903Z,100.00
2023-09-11T03:44:13.438Z,100.00
2023-09-11T03:47:15.913Z,100.00
2023-09-11T03:50:18.490Z,100.00
2023-09-11T03:53:21.295Z,100.00
2023-09-11T03:56:23.858Z,100.00
2023-09-11T03:59:26.741Z,100.00
2023-09-11T04:02:30.909Z,100.00
2023-09-11T04:05:33.412Z,100.00
2023-09-11T04:08:35.966Z,100.00
2023-09-11T04:11:38.565Z,100.00
2023-09-11T04:14:41.050Z,100.00
2023-09-11T04:17:43.660Z,100.00
2023-09-11T04:20:46.729Z,100.00
2023-09-11T04:23:49.232Z,100.00
2023-09-11T04:26:51.761Z,100.00
2023-09-11T04:29:54.657Z,100.00
2023-09-11T04:32:57.193Z,100.00
2023-09-11T04:36:00.528Z,100.00
2023-09-11T04:39:03.411Z,100.00
2023-09-11T04:42:05.948Z,100.00
2023-09-11T04:45:09.154Z,100.00
2023-09-11T04:48:11.744Z,100.00
2023-09-11T04:51:14.336Z,100.00
2023-09-11T04:54:16.928Z,100.00
2023-09-11T04:57:19.431Z,100.00
2023-09-11T05:00:22.029Z,100.00
2023-09-11T05:03:25.052Z,100.00
2023-09-11T05:06:27.673Z,100.00
2023-09-11T05:09:32.453Z,100.00
2023-09-11T05:12:35.277Z,100.00
2023-09-11T05:15:37.812Z,100.00
2023-09-11T05:18:40.685Z,100.00
2023-09-11T05:21:43.507Z,100.00
2023-09-11T05:24:45.938Z,100.00
2023-09-11T05:27:48.357Z,100.00
2023-09-11T05:30:51.464Z,100.00
2023-09-11T05:33:53.841Z,100.00
2023-09-11T05:36:56.366Z,100.00
2023-09-11T05:39:59.870Z,100.00
2023-09-11T05:43:03.045Z,100.00
2023-09-11T05:46:05.592Z,100.00
2023-09-11T05:49:08.070Z,100.00
2023-09-11T05:52:10.545Z,100.00
2023-09-11T05:55:13.089Z,100.00
2023-09-11T05:58:16.197Z,100.00
2023-09-11T06:01:19.157Z,100.00
2023-09-11T06:04:21.758Z,100.00
2023-09-11T06:07:24.221Z,100.00
2023-09-11T06:10:26.693Z,100.00
2023-09-11T06:13:29.170Z,100.00
2023-09-11T06:16:31.594Z,100.00
2023-09-11T06:19:34.023Z,100.00
2023-09-11T06:22:37.852Z,100.00
2023-09-11T06:25:40.275Z,100.00
2023-09-11T06:28:43.887Z,100.00
2023-09-11T06:31:46.412Z,100.00
2023-09-11T06:34:48.830Z,100.00
2023-09-11T06:37:51.242Z,100.00
2023-09-11T06:40:53.662Z,100.00
2023-09-11T06:43:57.244Z,100.00
2023-09-11T06:46:59.949Z,100.00
2023-09-11T06:50:04.105Z,100.00
2023-09-11T06:53:11.114Z,100.00
2023-09-11T06:56:13.734Z,100.00
2023-09-11T06:59:16.138Z,100.00
2023-09-11T07:02:18.551Z,100.00
2023-09-11T07:05:21.610Z,100.00
2023-09-11T07:08:24.055Z,100.00
2023-09-11T07:11:26.616Z,100.00
2023-09-11T07:14:29.470Z,100.00
2023-09-11T07:17:32.063Z,100.00
2023-09-11T07:20:34.701Z,100.00
2023-09-11T07:23:37.176Z,100.00
2023-09-11T07:26:39.676Z,96.09
2023-09-11T07:29:42.146Z,96.97
2023-09-11T07:32:44.905Z,95.28
2023-09-11T07:35:47.856Z,96.81
2023-09-11T07:38:50.493Z,92.16
2023-09-11T07:41:52.923Z,91.40
2023-09-11T07:44:55.344Z,90.71
2023-09-11T07:47:57.900Z,88.56
2023-09-11T07:51:00.374Z,83.56
2023-09-11T07:54:02.870Z,82.04
2023-09-11T07:57:05.615Z,82.08
2023-09-11T08:00:08.927Z,78.67
2023-09-11T08:03:11.974Z,77.37
2023-09-11T08:06:15.464Z,73.73
2023-09-11T08:09:17.965Z,70.23
2023-09-11T08:12:20.589Z,69.06
2023-09-11T08:15:23.245Z,69.69
2023-09-11T08:18:25.733Z,66.31
2023-09-11T08:21:28.265Z,65.00
2023-09-11T08:24:30.833Z,63.24
2023-09-11T08:27:33.229Z,60.40
2023-09-11T08:30:36.455Z,59.50
2023-09-11T08:33:53.903Z,56.99
2023-09-11T08:36:58.783Z,54.48
2023-09-11T08:40:01.255Z,52.14
2023-09-11T08:43:03.912Z,52.38
2023-09-11T08:46:10.944Z,52.18
2023-09-11T08:49:20.856Z,53.32
2023-09-11T08:52:23.591Z,51.40
2023-09-11T08:55:26.684Z,53.92
2023-09-11T08:58:32.608Z,49.34
2023-09-11T09:01:35.555Z,49.13
2023-09-11T09:04:40.069Z,47.83
2023-09-11T09:07:46.013Z,47.41
2023-09-11T09:10:49.547Z,46.82
2023-09-11T09:13:52.057Z,47.09
2023-09-11T09:16:55.061Z,46.51
2023-09-11T09:19:57.509Z,43.68
2023-09-11T09:23:02.445Z,43.39
2023-09-11T09:26:09.383Z,44.73
2023-09-11T09:29:12.364Z,44.24
2023-09-11T09:32:15.633Z,44.69
2023-09-11T09:35:30.348Z,43.56
2023-09-11T09:38:33.035Z,42.38
2023-09-11T09:41:35.536Z,40.58
2023-09-11T09:44:40.416Z,39.90
2023-09-11T09:47:43.061Z,39.88
2023-09-11T09:51:03.394Z,39.00
2023-09-11T09:54:05.960Z,39.81
2023-09-11T09:57:12.074Z,38.68
2023-09-11T10:00:17.885Z,38.90
2023-09-11T10:03:20.460Z,41.08
2023-09-11T10:06:28.880Z,38.26
2023-09-11T10:09:31.564Z,37.00
2023-09-11T10:12:33.994Z,37.24
2023-09-11T10:15:39.145Z,36.77
2023-09-11T10:18:46.630Z,37.74
2023-09-11T10:21:49.285Z,38.06
2023-09-11T10:24:51.732Z,37.05
2023-09-11T10:27:58.879Z,39.38
2023-09-11T10:31:46.566Z,36.90
2023-09-11T10:34:51.273Z,36.92
2023-09-11T10:37:58.630Z,37.42
2023-09-11T10:41:02.132Z,39.54
2023-09-11T10:44:05.212Z,38.28
2023-09-11T10:47:07.718Z,38.25
2023-09-11T10:50:11.252Z,39.75
2023-09-11T10:53:13.835Z,35.59
2023-09-11T10:56:17.097Z,36.88
2023-09-11T10:59:23.743Z,37.13
2023-09-11T11:02:26.378Z,38.12
2023-09-11T11:05:28.801Z,37.51
2023-09-11T11:08:35.834Z,36.04
2023-09-11T11:11:43.763Z,36.86
2023-09-11T11:15:25.979Z,32.81
2023-09-11T11:18:29.221Z,34.84
2023-09-11T11:21:41.959Z,37.01
2023-09-11T11:24:56.855Z,39.74
2023-09-11T11:28:14.637Z,39.77
2023-09-11T11:31:22.520Z,34.32
2023-09-11T11:34:36.567Z,34.07
2023-09-11T11:37:45.709Z,35.53
2023-09-11T11:40:48.760Z,34.98
2023-09-11T11:43:52.404Z,33.22
2023-09-11T11:46:54.954Z,31.96
2023-09-11T11:49:57.410Z,30.86
2023-09-11T11:52:59.848Z,31.88
2023-09-11T11:56:06.053Z,32.32
2023-09-11T11:59:08.577Z,34.20
2023-09-11T12:02:23.895Z,33.82
2023-09-11T12:05:26.454Z,33.14
2023-09-11T12:08:29.337Z,34.42
2023-09-11T12:11:34.639Z,35.95
2023-09-11T12:14:38.010Z,34.26
2023-09-11T12:17:50.961Z,34.24
2023-09-11T12:20:58.955Z,32.41
2023-09-11T12:24:01.788Z,34.14
2023-09-11T12:27:06.328Z,34.71
2023-09-11T12:30:09.880Z,33.56
2023-09-11T12:33:17.841Z,33.42
2023-09-11T12:36:23.835Z,33.02
2023-09-11T12:39:26.375Z,35.20
2023-09-11T12:42:28.809Z,36.13
2023-09-11T12:45:31.514Z,32.69
2023-09-11T12:48:41.411Z,31.76
2023-09-11T12:51:44.622Z,32.69
2023-09-11T12:54:47.736Z,31.90
2023-09-11T12:57:52.940Z,33.40
2023-09-11T13:00:58.089Z,32.65
2023-09-11T13:04:00.894Z,33.93
2023-09-11T13:07:03.658Z,33.61
2023-09-11T13:10:06.714Z,35.26
2023-09-11T13:13:15.340Z,33.79
2023-09-11T13:16:24.310Z,34.55
2023-09-11T13:19:26.854Z,35.97
2023-09-11T13:22:29.344Z,34.96
2023-09-11T13:25:31.865Z,36.51
2023-09-11T13:28:34.487Z,33.97
2023-09-11T13:31:37.692Z,33.96
2023-09-11T13:34:40.104Z,34.26
2023-09-11T13:37:43.115Z,34.02
2023-09-11T13:40:49.330Z,36.03
2023-09-11T13:43:52.220Z,34.75
2023-09-11T13:46:54.702Z,34.21
2023-09-11T13:49:57.115Z,34.37
2023-09-11T13:52:59.559Z,34.00
2023-09-11T13:56:02.058Z,34.21
2023-09-11T13:59:04.479Z,32.89
2023-09-11T14:02:07.710Z,33.98
2023-09-11T14:05:10.592Z,33.76
2023-09-11T14:08:13.045Z,35.18
2023-09-11T14:11:15.499Z,34.21
2023-09-11T14:14:17.906Z,32.98
2023-09-11T14:17:20.307Z,33.37
2023-09-11T14:20:22.705Z,34.43
2023-09-11T14:23:25.155Z,35.77
2023-09-11T14:26:27.558Z,35.04
2023-09-11T14:29:30.001Z,34.73
2023-09-11T14:32:32.430Z,36.68
2023-09-11T14:35:35.267Z,38.96
2023-09-11T14:38:37.717Z,35.46
2023-09-11T14:41:40.198Z,36.30
2023-09-11T14:44:42.685Z,36.63
2023-09-11T14:47:45.642Z,37.29
2023-09-11T14:50:49.024Z,36.84
2023-09-11T14:53:52.458Z,37.54
2023-09-11T14:56:57.781Z,38.56
2023-09-11T15:00:05.030Z,39.10
2023-09-11T15:03:07.837Z,37.83
2023-09-11T15:06:10.464Z,36.83
2023-09-11T15:09:13.005Z,37.38
2023-09-11T15:12:15.651Z,37.73
2023-09-11T15:15:18.272Z,37.41
2023-09-11T15:18:25.758Z,36.99
2023-09-11T15:21:29.224Z,37.43
2023-09-11T15:24:31.985Z,36.27
2023-09-11T15:27:34.522Z,37.03
2023-09-11T15:30:40.360Z,38.28
2023-09-11T15:33:42.854Z,38.55
2023-09-11T15:36:45.307Z,38.65
2023-09-11T15:39:47.973Z,38.79
2023-09-11T15:42:50.518Z,39.86
2023-09-11T15:45:53.004Z,39.30
2023-09-11T15:48:55.548Z,39.39
2023-09-11T15:52:04.090Z,40.82
2023-09-11T15:55:06.874Z,41.23
2023-09-11T15:58:09.312Z,39.60
2023-09-11T16:01:12.332Z,40.37
2023-09-11T16:04:14.993Z,41.07
2023-09-11T16:07:17.468Z,42.85
2023-09-11T16:10:19.871Z,44.09
2023-09-11T16:13:22.543Z,45.55
2023-09-11T16:16:25.028Z,46.43
2023-09-11T16:19:27.477Z,47.62
2023-09-11T16:22:29.864Z,50.04
2023-09-11T16:25:34.040Z,49.40
2023-09-11T16:28:36.490Z,50.87
2023-09-11T16:31:38.868Z,55.16
2023-09-11T16:34:41.367Z,61.56
2023-09-11T16:37:45.028Z,59.87
2023-09-11T16:40:47.441Z,59.15
2023-09-11T16:43:49.804Z,56.37
2023-09-11T16:46:52.410Z,56.50
2023-09-11T16:49:55.812Z,57.62
2023-09-11T16:52:59.295Z,64.35
2023-09-11T16:56:01.751Z,68.40
2023-09-11T16:59:04.231Z,69.38
2023-09-11T17:02:06.699Z,71.46
2023-09-11T17:05:10.288Z,71.80
2023-09-11T17:08:12.831Z,71.33
2023-09-11T17:11:15.209Z,79.15
2023-09-11T17:14:17.609Z,84.65
2023-09-11T17:17:19.970Z,82.95
2023-09-11T17:20:23.821Z,83.29
2023-09-11T17:23:26.394Z,80.35
2023-09-11T17:26:28.925Z,68.69
2023-09-11T17:29:31.526Z,79.57
2023-09-11T17:32:38.141Z,80.88
2023-09-11T17:35:40.726Z,76.75
2023-09-11T17:38:43.468Z,77.43
2023-09-11T17:41:46.206Z,76.46
2023-09-11T17:44:48.706Z,75.92
2023-09-11T17:47:51.159Z,75.75
2023-09-11T17:50:54.699Z,77.28
2023-09-11T17:53:57.248Z,78.72
2023-09-11T17:56:59.713Z,79.85
2023-09-11T18:00:02.445Z,80.50
2023-09-11T18:03:12.202Z,80.58
2023-09-11T18:06:14.947Z,82.49
2023-09-11T18:09:17.514Z,83.05
2023-09-11T18:12:20.020Z,84.53
2023-09-11T18:15:22.464Z,83.75
2023-09-11T18:18:25.134Z,83.96
2023-09-11T18:21:27.645Z,83.59
2023-09-11T18:24:30.118Z,81.76
2023-09-11T18:27:36.438Z,80.21
2023-09-11T18:30:40.755Z,81.30
2023-09-11T18:33:43.503Z,78.68
2023-09-11T18:36:46.872Z,84.34
2023-09-11T18:39:49.312Z,86.72
2023-09-11T18:42:52.031Z,86.89
2023-09-11T18:45:54.460Z,86.11
2023-09-11T18:48:58.570Z,89.48
2023-09-11T18:52:01.106Z,91.23
2023-09-11T18:55:04.045Z,94.08
2023-09-11T18:58:06.705Z,99.01
2023-09-11T19:01:09.275Z,99.55
2023-09-11T19:04:11.935Z,99.23
2023-09-11T19:07:15.096Z,97.22
2023-09-11T19:10:17.738Z,97.51
2023-09-11T19:13:20.364Z,96.85
2023-09-11T19:16:22.941Z,96.66
2023-09-11T19:19:25.302Z,99.19
2023-09-11T19:22:27.735Z,100.00
2023-09-11T19:25:30.378Z,100.00
2023-09-11T19:28:32.938Z,100.00
2023-09-11T19:31:36.298Z,100.00
2023-09-11T19:34:38.876Z,100.00
2023-09-11T19:37:41.345Z,100.00
2023-09-11T19:40:44.055Z,100.00
2023-09-11T19:43:47.644Z,100.00
2023-09-11T19:46:50.042Z,100.00
2023-09-11T19:49:52.498Z,100.00
2023-09-11T19:52:55.073Z,100.00
2023-09-11T19:55:57.512Z,100.00
2023-09-11T19:59:06.124Z,100.00
2023-09-11T20:02:09.796Z,100.00
2023-09-11T20:05:12.308Z,100.00
2023-09-11T20:08:14.713Z,100.00
2023-09-11T20:11:17.146Z,100.00
2023-09-11T20:14:19.642Z,100.00
2023-09-11T20:17:22.210Z,100.00
2023-09-11T20:20:24.636Z,100.00
2023-09-11T20:23:27.024Z,100.00
2023-09-11T20:26:30.094Z,100.00
2023-09-11T20:29:32.570Z,100.00
2023-09-11T20:32:36.100Z,100.00
2023-09-11T20:35:38.591Z,100.00
2023-09-11T20:38:41.514Z,100.00
2023-09-11T20:41:44.187Z,100.00
2023-09-11T20:44:46.602Z,100.00
2023-09-11T20:47:48.995Z,100.00
2023-09-11T20:50:51.434Z,100.00
2023-09-11T20:53:53.966Z,100.00
2023-09-11T20:56:56.454Z,100.00
2023-09-11T20:59:59.308Z,100.00
2023-09-11T21:03:01.850Z,100.00
2023-09-11T21:06:05.019Z,100.00
2023-09-11T21:09:07.494Z,100.00
2023-09-11T21:12:09.968Z,100.00
2023-09-11T21:15:12.496Z,100.00
2023-09-11T21:18:15.035Z,100.00
2023-09-11T21:21:17.577Z,100.00
2023-09-11T21:24:20.130Z,100.00
2023-09-11T21:27:22.593Z,100.00
2023-09-11T21:30:25.305Z,100.00
2023-09-11T21:33:29.470Z,100.00
2023-09-11T21:36:32.145Z,100.00
2023-09-11T21:39:34.929Z,100.00
2023-09-11T21:42:37.478Z,100.00
2023-09-11T21:45:44.151Z,100.00
2023-09-11T21:48:46.648Z,100.00
2023-09-11T21:51:49.310Z,100.00
2023-09-11T21:54:52.050Z,100.00
2023-09-11T21:57:54.590Z,100.00
2023-09-11T22:00:57.014Z,100.00
2023-09-11T22:03:59.922Z,100.00
2023-09-11T22:07:02.661Z,100.00
2023-09-11T22:10:05.783Z,100.00
2023-09-11T22:13:08.701Z,100.00
2023-09-11T22:16:11.154Z,100.00
2023-09-11T22:19:13.618Z,100.00
2023-09-11T22:22:16.105Z,100.00
2023-09-11T22:25:18.557Z,100.00
2023-09-11T22:28:20.957Z,100.00
2023-09-11T22:31:23.353Z,100.00
2023-09-11T22:34:25.929Z,100.00
2023-09-11T22:37:28.602Z,100.00
2023-09-11T22:40:31.510Z,100.00
2023-09-11T22:43:33.948Z,100.00
2023-09-11T22:46:36.488Z,100.00
2023-09-11T22:49:38.899Z,100.00
2023-09-11T22:52:41.239Z,100.00
2023-09-11T22:55:45.546Z,100.00
2023-09-11T22:58:47.956Z,100.00
2023-09-11T23:01:50.404Z,100.00
2023-09-11T23:04:52.929Z,100.00
2023-09-11T23:07:55.316Z,100.00
2023-09-11T23:10:57.818Z,100.00
2023-09-11T23:14:00.278Z,100.00
2023-09-11T23:17:02.711Z,100.00
2023-09-11T23:20:08.821Z,100.00
2023-09-11T23:23:11.223Z,100.00
2023-09-11T23:26:13.845Z,100.00
2023-09-11T23:29:16.230Z,100.00
2023-09-11T23:32:18.653Z,100.00
2023-09-11T23:35:21.037Z,100.00
2023-09-11T23:38:23.390Z,100.00
2023-09-11T23:41:27.353Z,100.00
2023-09-11T23:44:29.791Z,100.00
2023-09-11T23:47:32.516Z,100.00
2023-09-11T23:50:35.413Z,100.00
2023-09-11T23:53:37.980Z,100.00
2023-09-11T23:56:43.153Z,100.00
2023-09-11T23:59:45.981Z,100.00
